createdAt,value
2022-08-27T00:00:33.168Z,10.33
2022-08-27T00:02:59.712Z,11.13
2022-08-27T00:05:26.048Z,12.10
2022-08-27T00:07:52.485Z,9.50
2022-08-27T00:10:23.118Z,9.63
2022-08-27T00:12:49.537Z,9.37
2022-08-27T00:15:17.876Z,9.27
2022-08-27T00:17:45.807Z,9.10
2022-08-27T00:20:16.312Z,9.33
2022-08-27T00:22:43.105Z,9.20
2022-08-27T00:25:10.646Z,8.37
2022-08-27T00:27:37.348Z,8.87
2022-08-27T00:30:06.390Z,9.20
2022-08-27T00:32:32.850Z,10.23
2022-08-27T00:34:59.217Z,8.60
2022-08-27T00:37:25.622Z,11.10
2022-08-27T00:39:52.118Z,11.03
2022-08-27T00:42:18.571Z,11.23
2022-08-27T00:44:45.005Z,11.70
2022-08-27T00:47:17.000Z,10.93
2022-08-27T00:49:50.629Z,12.57
2022-08-27T00:52:33.180Z,11.63
2022-08-27T00:55:11.830Z,12.20
2022-08-27T00:57:39.565Z,12.40
2022-08-27T01:00:13.709Z,13.43
2022-08-27T01:02:42.016Z,14.80
2022-08-27T01:05:12.837Z,13.80
2022-08-27T01:07:41.396Z,14.83
2022-08-27T01:10:12.193Z,13.27
2022-08-27T01:12:39.300Z,14.43
2022-08-27T01:15:10.062Z,14.07
2022-08-27T01:17:39.158Z,13.47
2022-08-27T01:20:09.929Z,13.07
2022-08-27T01:23:17.425Z,11.87
2022-08-27T01:25:45.258Z,10.07
2022-08-27T01:28:13.593Z,10.23
2022-08-27T01:30:41.067Z,9.37
2022-08-27T01:33:17.265Z,9.33
2022-08-27T01:35:47.249Z,10.33
2022-08-27T01:38:18.836Z,11.47
2022-08-27T01:40:47.992Z,8.70
2022-08-27T01:43:14.556Z,10.63
2022-08-27T01:45:48.305Z,9.17
2022-08-27T01:48:16.769Z,12.00
2022-08-27T01:50:44.093Z,9.10
2022-08-27T01:53:16.841Z,11.20
2022-08-27T01:55:47.552Z,11.40
2022-08-27T01:58:15.996Z,10.33
2022-08-27T02:00:46.605Z,8.87
2022-08-27T02:03:13.230Z,10.43
2022-08-27T02:05:44.842Z,11.23
2022-08-27T02:08:12.800Z,9.30
2022-08-27T02:10:40.150Z,12.57
2022-08-27T02:13:08.141Z,9.80
2022-08-27T02:15:36.732Z,10.47
2022-08-27T02:18:05.394Z,9.90
2022-08-27T02:20:31.964Z,14.60
2022-08-27T02:22:58.479Z,10.70
2022-08-27T02:25:27.008Z,13.33
2022-08-27T02:27:53.450Z,13.13
2022-08-27T02:30:23.807Z,15.37
2022-08-27T02:32:52.862Z,15.40
2022-08-27T02:35:21.582Z,18.40
2022-08-27T02:37:48.690Z,16.90
2022-08-27T02:40:17.851Z,17.53
2022-08-27T02:42:45.636Z,17.97
2022-08-27T02:45:13.627Z,19.03
2022-08-27T02:47:40.196Z,25.40
2022-08-27T02:50:07.845Z,19.27
2022-08-27T02:52:34.815Z,20.07
2022-08-27T02:55:01.758Z,19.90
2022-08-27T02:57:29.168Z,20.47
2022-08-27T02:59:58.772Z,23.57
2022-08-27T03:02:25.773Z,23.20
2022-08-27T03:04:54.153Z,29.63
2022-08-27T03:07:23.436Z,26.43
2022-08-27T03:09:51.044Z,25.17
2022-08-27T03:12:17.417Z,28.13
2022-08-27T03:14:44.521Z,25.50
2022-08-27T03:17:29.277Z,24.13
2022-08-27T03:19:55.654Z,31.53
2022-08-27T03:22:22.037Z,26.60
2022-08-27T03:24:48.476Z,22.93
2022-08-27T03:27:15.380Z,29.83
2022-08-27T03:29:41.781Z,21.80
2022-08-27T03:32:08.140Z,21.77
2022-08-27T03:34:34.554Z,27.97
2022-08-27T03:37:01.392Z,24.93
2022-08-27T03:39:27.848Z,19.00
2022-08-27T03:41:55.763Z,22.70
2022-08-27T03:44:23.999Z,20.93
2022-08-27T03:46:51.791Z,21.20
2022-08-27T03:49:21.336Z,19.53
2022-08-27T03:51:49.607Z,20.10
2022-08-27T03:54:16.234Z,19.27
2022-08-27T03:56:42.594Z,21.13
2022-08-27T03:59:09.159Z,24.17
2022-08-27T04:01:36.002Z,17.67
2022-08-27T04:04:03.081Z,20.20
2022-08-27T04:06:29.448Z,20.90
2022-08-27T04:08:56.193Z,19.63
2022-08-27T04:11:22.575Z,23.10
2022-08-27T04:13:48.930Z,18.03
2022-08-27T04:16:15.420Z,20.33
2022-08-27T04:18:41.836Z,22.10
2022-08-27T04:21:11.227Z,21.40
2022-08-27T04:23:39.109Z,20.07
2022-08-27T04:26:06.949Z,20.40
2022-08-27T04:28:37.896Z,22.37
2022-08-27T04:31:05.364Z,23.90
2022-08-27T04:33:32.413Z,19.27
2022-08-27T04:36:00.937Z,21.73
2022-08-27T04:38:27.762Z,19.60
2022-08-27T04:41:12.509Z,28.93
2022-08-27T04:43:38.878Z,24.03
2022-08-27T04:46:05.386Z,20.50
2022-08-27T04:48:32.670Z,20.63
2022-08-27T04:50:59.242Z,23.00
2022-08-27T04:53:25.812Z,20.17
2022-08-27T04:55:54.922Z,18.47
2022-08-27T04:58:23.040Z,22.67
2022-08-27T05:00:55.706Z,18.83
2022-08-27T05:03:24.102Z,16.90
2022-08-27T05:05:51.674Z,17.27
2022-08-27T05:08:18.096Z,16.60
2022-08-27T05:10:47.924Z,20.17
2022-08-27T05:13:15.528Z,18.57
2022-08-27T05:15:41.941Z,17.90
2022-08-27T05:18:08.733Z,19.00
2022-08-27T05:20:48.605Z,19.23
2022-08-27T05:23:17.928Z,20.27
2022-08-27T05:25:47.617Z,17.77
2022-08-27T05:28:15.139Z,20.40
2022-08-27T05:30:44.171Z,17.83
2022-08-27T05:33:18.837Z,15.03
2022-08-27T05:35:48.510Z,17.90
2022-08-27T05:38:15.817Z,20.70
2022-08-27T05:40:43.755Z,17.27
2022-08-27T05:43:12.271Z,16.27
2022-08-27T05:45:44.004Z,19.50
2022-08-27T05:48:13.132Z,16.90
2022-08-27T05:50:40.577Z,17.43
2022-08-27T05:53:07.895Z,21.57
2022-08-27T05:55:43.538Z,16.83
2022-08-27T05:58:30.534Z,18.37
2022-08-27T06:01:10.180Z,15.87
2022-08-27T06:03:37.977Z,14.77
2022-08-27T06:06:11.024Z,14.03
2022-08-27T06:08:38.204Z,12.67
2022-08-27T06:11:06.644Z,13.60
2022-08-27T06:13:35.154Z,14.63
2022-08-27T06:16:04.660Z,13.70
2022-08-27T06:18:34.606Z,14.50
2022-08-27T06:21:01.064Z,13.10
2022-08-27T06:23:28.751Z,12.93
2022-08-27T06:25:56.823Z,11.80
2022-08-27T06:28:25.153Z,16.50
2022-08-27T06:30:52.778Z,11.87
2022-08-27T06:33:21.110Z,12.33
2022-08-27T06:35:47.497Z,16.73
2022-08-27T06:38:13.859Z,12.23
2022-08-27T06:40:41.999Z,12.20
2022-08-27T06:43:08.514Z,11.27
2022-08-27T06:45:39.054Z,11.37
2022-08-27T06:48:05.645Z,11.30
2022-08-27T06:50:40.398Z,11.77
2022-08-27T06:53:07.260Z,12.13
2022-08-27T06:55:41.437Z,18.67
2022-08-27T06:58:07.963Z,13.87
2022-08-27T07:00:34.360Z,11.30
2022-08-27T07:03:01.557Z,13.80
2022-08-27T07:05:27.898Z,12.53
2022-08-27T07:07:54.360Z,14.43
2022-08-27T07:10:20.745Z,15.00
2022-08-27T07:12:47.110Z,12.77
2022-08-27T07:15:13.519Z,13.57
2022-08-27T07:17:41.052Z,13.70
2022-08-27T07:20:08.500Z,14.67
2022-08-27T07:22:34.833Z,13.10
2022-08-27T07:25:01.188Z,14.63
2022-08-27T07:27:27.548Z,13.20
2022-08-27T07:29:53.994Z,14.83
2022-08-27T07:32:20.353Z,14.10
2022-08-27T07:34:46.722Z,14.83
2022-08-27T07:37:14.863Z,14.80
2022-08-27T07:39:41.229Z,15.03
2022-08-27T07:42:26.746Z,14.57
2022-08-27T07:44:53.137Z,14.87
2022-08-27T07:47:19.684Z,15.67
2022-08-27T07:49:46.067Z,13.77
2022-08-27T07:52:16.109Z,13.87
2022-08-27T07:54:42.856Z,14.40
2022-08-27T07:57:11.258Z,13.73
2022-08-27T07:59:38.240Z,13.00
2022-08-27T08:02:04.764Z,15.63
2022-08-27T08:04:31.212Z,13.00
2022-08-27T08:06:57.550Z,14.17
2022-08-27T08:09:24.923Z,13.27
2022-08-27T08:11:52.261Z,14.30
2022-08-27T08:14:19.644Z,12.90
2022-08-27T08:16:46.352Z,13.47
2022-08-27T08:19:13.020Z,13.40
2022-08-27T08:21:39.467Z,12.00
2022-08-27T08:24:06.219Z,13.17
2022-08-27T08:26:32.590Z,12.00
2022-08-27T08:29:00.613Z,12.00
2022-08-27T08:31:27.399Z,12.30
2022-08-27T08:33:54.712Z,14.43
2022-08-27T08:36:21.158Z,12.67
2022-08-27T08:38:48.241Z,13.13
2022-08-27T08:41:35.018Z,12.23
2022-08-27T08:44:08.619Z,13.47
2022-08-27T08:46:45.990Z,13.47
2022-08-27T08:49:38.410Z,12.63
2022-08-27T08:52:30.637Z,12.80
2022-08-27T08:55:17.428Z,13.30
2022-08-27T08:57:53.390Z,12.77
2022-08-27T09:00:19.804Z,12.30
2022-08-27T09:02:54.579Z,13.17
2022-08-27T09:05:27.179Z,8.90
2022-08-27T09:08:21.608Z,11.50
2022-08-27T09:10:58.900Z,9.20
2022-08-27T09:13:31.105Z,11.83
2022-08-27T09:16:01.103Z,10.50
2022-08-27T09:18:27.812Z,13.50
2022-08-27T09:21:09.928Z,7.20
2022-08-27T09:23:53.244Z,8.27
2022-08-27T09:26:26.653Z,7.80
2022-08-27T09:29:16.499Z,7.53
2022-08-27T09:32:09.384Z,6.33
2022-08-27T09:34:39.394Z,5.37
2022-08-27T09:37:15.313Z,10.07
2022-08-27T09:39:50.381Z,7.97
2022-08-27T09:42:31.483Z,10.67
2022-08-27T09:44:58.686Z,10.83
2022-08-27T09:47:25.860Z,7.90
2022-08-27T09:50:07.921Z,6.33
2022-08-27T09:52:55.766Z,6.90
2022-08-27T09:55:32.232Z,12.83
2022-08-27T09:57:59.512Z,9.03
2022-08-27T10:00:36.259Z,12.80
2022-08-27T10:03:04.029Z,7.90
2022-08-27T10:05:42.889Z,7.73
2022-08-27T10:08:43.713Z,6.77
2022-08-27T10:11:32.131Z,9.83
2022-08-27T10:14:14.414Z,14.53
2022-08-27T10:17:04.037Z,12.17
2022-08-27T10:20:12.108Z,11.57
2022-08-27T10:23:10.209Z,10.13
2022-08-27T10:25:42.483Z,9.63
2022-08-27T10:28:38.797Z,11.43
2022-08-27T10:31:13.698Z,10.47
2022-08-27T10:34:12.398Z,10.93
2022-08-27T10:37:10.773Z,9.37
2022-08-27T10:40:04.175Z,10.03
2022-08-27T10:42:46.131Z,9.70
2022-08-27T10:45:42.789Z,12.30
2022-08-27T10:48:34.290Z,14.20
2022-08-27T10:51:26.098Z,10.63
2022-08-27T10:54:25.876Z,9.83
2022-08-27T10:57:35.312Z,8.93
2022-08-27T11:00:10.768Z,14.17
2022-08-27T11:02:49.838Z,8.63
2022-08-27T11:05:24.096Z,7.40
2022-08-27T11:08:01.923Z,11.93
2022-08-27T11:10:32.614Z,11.40
2022-08-27T11:13:05.637Z,9.23
2022-08-27T11:15:36.598Z,5.60
2022-08-27T11:18:19.028Z,7.70
2022-08-27T11:21:15.805Z,9.27
2022-08-27T11:24:34.900Z,9.13
2022-08-27T11:27:05.793Z,6.00
2022-08-27T11:29:37.613Z,6.27
2022-08-27T11:32:54.894Z,5.37
2022-08-27T11:35:24.329Z,5.70
2022-08-27T11:38:15.327Z,8.70
2022-08-27T11:40:56.920Z,9.20
2022-08-27T11:43:30.978Z,9.97
2022-08-27T11:46:03.588Z,13.20
2022-08-27T11:48:38.072Z,10.77
2022-08-27T11:51:07.040Z,7.70
2022-08-27T11:53:42.734Z,13.70
2022-08-27T11:56:39.635Z,8.97
2022-08-27T11:59:29.457Z,10.13
2022-08-27T12:02:10.333Z,11.47
2022-08-27T12:04:40.357Z,13.77
2022-08-27T12:07:27.145Z,12.03
2022-08-27T12:09:56.236Z,11.73
2022-08-27T12:12:44.614Z,13.00
2022-08-27T12:15:22.155Z,11.80
2022-08-27T12:18:13.630Z,10.20
2022-08-27T12:20:50.770Z,10.80
2022-08-27T12:23:42.535Z,15.40
2022-08-27T12:26:42.671Z,12.03
2022-08-27T12:29:39.364Z,11.50
2022-08-27T12:32:31.279Z,11.80
2022-08-27T12:35:13.054Z,11.40
2022-08-27T12:37:47.512Z,12.50
2022-08-27T12:40:24.621Z,13.10
2022-08-27T12:43:04.076Z,10.80
2022-08-27T12:45:30.846Z,12.13
2022-08-27T12:47:57.966Z,11.10
2022-08-27T12:50:30.467Z,9.70
2022-08-27T12:53:02.256Z,8.10
2022-08-27T12:55:57.209Z,11.63
2022-08-27T12:58:39.188Z,7.90
2022-08-27T13:01:46.149Z,9.63
2022-08-27T13:04:25.421Z,9.63
2022-08-27T13:06:52.065Z,7.00
2022-08-27T13:09:28.196Z,10.67
2022-08-27T13:11:56.795Z,10.27
2022-08-27T13:14:25.467Z,11.63
2022-08-27T13:16:53.918Z,6.80
2022-08-27T13:19:32.167Z,10.40
2022-08-27T13:21:59.218Z,10.23
2022-08-27T13:24:36.133Z,8.80
2022-08-27T13:27:05.377Z,8.87
2022-08-27T13:29:32.463Z,8.80
2022-08-27T13:31:59.944Z,8.47
2022-08-27T13:34:28.484Z,10.13
2022-08-27T13:37:00.409Z,8.43
2022-08-27T13:39:27.937Z,6.53
2022-08-27T13:41:58.068Z,10.73
2022-08-27T13:44:31.510Z,9.00
2022-08-27T13:47:14.280Z,7.67
2022-08-27T13:49:41.033Z,7.80
2022-08-27T13:52:32.284Z,7.77
2022-08-27T13:55:15.411Z,8.97
2022-08-27T13:57:45.273Z,7.40
2022-08-27T14:00:19.257Z,7.37
2022-08-27T14:02:56.012Z,8.10
2022-08-27T14:05:22.893Z,10.30
2022-08-27T14:08:13.765Z,9.00
2022-08-27T14:10:44.909Z,7.53
2022-08-27T14:13:21.689Z,7.93
2022-08-27T14:15:54.259Z,8.47
2022-08-27T14:18:54.945Z,9.83
2022-08-27T14:21:16.680Z,9.17
2022-08-27T14:23:43.069Z,8.67
2022-08-27T14:26:09.517Z,11.70
2022-08-27T14:28:36.857Z,9.30
2022-08-27T14:31:03.415Z,12.07
2022-08-27T14:33:30.407Z,8.93
2022-08-27T14:35:56.864Z,9.53
2022-08-27T14:38:24.500Z,7.70
2022-08-27T14:40:53.717Z,9.17
2022-08-27T14:43:21.782Z,9.13
2022-08-27T14:45:50.953Z,6.53
2022-08-27T14:48:21.058Z,12.07
2022-08-27T14:50:55.151Z,8.60
2022-08-27T14:53:21.597Z,5.90
2022-08-27T14:55:51.893Z,6.63
2022-08-27T14:58:19.083Z,7.50
2022-08-27T15:00:45.645Z,7.13
2022-08-27T15:03:12.699Z,6.40
2022-08-27T15:05:39.214Z,6.57
2022-08-27T15:08:06.707Z,9.07
2022-08-27T15:10:38.856Z,9.23
2022-08-27T15:13:05.439Z,11.03
2022-08-27T15:15:31.841Z,8.90
2022-08-27T15:17:58.281Z,12.33
2022-08-27T15:20:24.677Z,10.53
2022-08-27T15:22:52.191Z,10.20
2022-08-27T15:25:19.585Z,10.77
2022-08-27T15:27:46.051Z,11.63
2022-08-27T15:30:15.197Z,11.50
2022-08-27T15:32:44.674Z,11.60
2022-08-27T15:35:19.559Z,13.67
2022-08-27T15:37:46.782Z,12.50
2022-08-27T15:40:15.354Z,12.93
2022-08-27T15:42:42.599Z,12.63
2022-08-27T15:45:11.305Z,13.70
2022-08-27T15:47:37.712Z,11.30
2022-08-27T15:50:05.135Z,11.40
2022-08-27T15:52:40.318Z,11.13
2022-08-27T15:55:22.484Z,15.90
2022-08-27T15:57:49.665Z,10.03
2022-08-27T16:00:17.565Z,13.50
2022-08-27T16:02:46.174Z,9.80
2022-08-27T16:05:15.717Z,9.23
2022-08-27T16:07:42.510Z,9.67
2022-08-27T16:10:10.364Z,10.80
2022-08-27T16:12:36.921Z,11.80
2022-08-27T16:15:05.667Z,9.73
2022-08-27T16:17:32.415Z,8.83
2022-08-27T16:19:58.855Z,9.67
2022-08-27T16:22:25.222Z,9.60
2022-08-27T16:24:51.589Z,10.17
2022-08-27T16:27:17.959Z,9.00
2022-08-27T16:29:44.313Z,8.93
2022-08-27T16:32:16.415Z,11.07
2022-08-27T16:34:43.021Z,7.83
2022-08-27T16:37:10.095Z,10.10
2022-08-27T16:39:40.477Z,7.07
2022-08-27T16:42:10.032Z,7.63
2022-08-27T16:44:37.237Z,9.20
2022-08-27T16:47:05.093Z,8.47
2022-08-27T16:49:49.784Z,10.27
2022-08-27T16:52:16.496Z,14.27
2022-08-27T16:54:43.030Z,11.30
2022-08-27T16:57:09.392Z,7.43
2022-08-27T16:59:35.748Z,10.57
2022-08-27T17:02:02.784Z,7.00
2022-08-27T17:04:35.485Z,11.50
2022-08-27T17:07:08.126Z,7.60
2022-08-27T17:09:36.321Z,8.00
2022-08-27T17:12:05.274Z,9.67
2022-08-27T17:14:37.712Z,7.87
2022-08-27T17:17:05.379Z,6.50
2022-08-27T17:19:34.481Z,7.87
2022-08-27T17:22:02.096Z,7.20
2022-08-27T17:24:28.708Z,9.87
2022-08-27T17:26:55.137Z,6.77
2022-08-27T17:29:21.652Z,9.23
2022-08-27T17:31:48.043Z,6.53
2022-08-27T17:34:17.789Z,17.37
2022-08-27T17:36:46.126Z,10.77
2022-08-27T17:39:13.366Z,12.63
2022-08-27T17:41:42.476Z,21.03
2022-08-27T17:44:33.309Z,10.03
2022-08-27T17:47:02.787Z,6.00
2022-08-27T17:49:32.637Z,14.40
2022-08-27T17:52:02.284Z,6.87
2022-08-27T17:54:32.448Z,8.93
2022-08-27T17:56:59.759Z,6.80
2022-08-27T17:59:26.412Z,6.93
2022-08-27T18:01:53.211Z,6.47
2022-08-27T18:04:19.686Z,6.17
2022-08-27T18:06:46.116Z,7.17
2022-08-27T18:09:15.740Z,5.53
2022-08-27T18:11:42.942Z,7.23
2022-08-27T18:14:09.350Z,7.20
2022-08-27T18:16:36.016Z,7.70
2022-08-27T18:19:06.880Z,6.60
2022-08-27T18:21:33.638Z,6.60
2022-08-27T18:24:00.874Z,8.70
2022-08-27T18:26:29.296Z,6.83
2022-08-27T18:28:57.586Z,10.03
2022-08-27T18:31:30.221Z,5.37
2022-08-27T18:33:57.343Z,7.63
2022-08-27T18:36:25.177Z,6.73
2022-08-27T18:38:51.609Z,10.13
2022-08-27T18:41:19.451Z,9.40
2022-08-27T18:43:46.316Z,6.60
2022-08-27T18:46:13.195Z,7.70
2022-08-27T18:48:39.975Z,6.73
2022-08-27T18:51:09.042Z,10.80
2022-08-27T18:53:39.753Z,8.67
2022-08-27T18:56:08.215Z,8.00
2022-08-27T18:58:38.381Z,6.10
2022-08-27T19:01:11.851Z,7.10
2022-08-27T19:03:48.097Z,7.40
2022-08-27T19:06:17.500Z,8.67
2022-08-27T19:08:44.620Z,9.80
2022-08-27T19:11:11.108Z,7.13
2022-08-27T19:13:38.062Z,5.73
2022-08-27T19:16:13.746Z,9.20
2022-08-27T19:18:41.592Z,6.90
2022-08-27T19:21:08.605Z,6.53
2022-08-27T19:23:36.098Z,9.73
2022-08-27T19:26:03.309Z,6.50
2022-08-27T19:28:39.580Z,7.30
2022-08-27T19:31:07.817Z,8.30
2022-08-27T19:33:35.467Z,8.10
2022-08-27T19:36:02.442Z,7.87
2022-08-27T19:38:31.691Z,4.67
2022-08-27T19:41:02.098Z,6.10
2022-08-27T19:43:29.147Z,6.40
2022-08-27T19:45:57.275Z,7.33
2022-08-27T19:48:23.908Z,5.47
2022-08-27T19:50:50.854Z,10.47
2022-08-27T19:53:17.608Z,6.93
2022-08-27T19:55:45.825Z,8.20
2022-08-27T19:58:15.193Z,5.63
2022-08-27T20:00:43.206Z,6.53
2022-08-27T20:03:10.334Z,6.13
2022-08-27T20:05:36.770Z,4.07
2022-08-27T20:08:04.649Z,6.43
2022-08-27T20:10:36.113Z,4.10
2022-08-27T20:13:03.687Z,5.20
2022-08-27T20:15:30.063Z,4.80
2022-08-27T20:17:59.148Z,5.87
2022-08-27T20:20:26.181Z,5.53
2022-08-27T20:22:52.913Z,7.03
2022-08-27T20:25:19.562Z,9.63
2022-08-27T20:27:47.575Z,6.30
2022-08-27T20:30:16.012Z,4.03
2022-08-27T20:32:43.224Z,5.70
2022-08-27T20:35:10.740Z,7.70
2022-08-27T20:37:41.918Z,5.10
2022-08-27T20:40:12.960Z,7.60
2022-08-27T20:42:39.471Z,7.40
2022-08-27T20:45:11.179Z,6.00
2022-08-27T20:47:38.809Z,9.60
2022-08-27T20:50:06.401Z,8.50
2022-08-27T20:52:34.241Z,6.23
2022-08-27T20:55:00.591Z,6.67
2022-08-27T20:57:26.956Z,6.67
2022-08-27T21:00:11.932Z,4.80
2022-08-27T21:02:38.406Z,4.27
2022-08-27T21:05:11.676Z,6.40
2022-08-27T21:07:38.250Z,7.70
2022-08-27T21:10:06.333Z,7.17
2022-08-27T21:12:33.515Z,5.10
2022-08-27T21:15:02.037Z,3.87
2022-08-27T21:17:28.834Z,4.97
2022-08-27T21:19:56.113Z,3.83
2022-08-27T21:22:23.477Z,5.20
2022-08-27T21:24:50.215Z,10.77
2022-08-27T21:27:18.543Z,6.53
2022-08-27T21:29:45.081Z,5.57
2022-08-27T21:32:12.051Z,6.67
2022-08-27T21:34:38.501Z,5.23
2022-08-27T21:37:05.068Z,4.40
2022-08-27T21:39:32.784Z,4.87
2022-08-27T21:42:01.803Z,5.77
2022-08-27T21:44:29.887Z,8.50
2022-08-27T21:46:56.906Z,6.40
2022-08-27T21:49:23.448Z,6.50
2022-08-27T21:51:49.822Z,7.60
2022-08-27T21:54:16.327Z,5.70
2022-08-27T21:56:43.297Z,6.33
2022-08-27T21:59:09.842Z,5.83
2022-08-27T22:01:36.637Z,7.63
2022-08-27T22:04:03.406Z,5.20
2022-08-27T22:06:30.068Z,7.17
2022-08-27T22:08:56.557Z,6.43
2022-08-27T22:11:24.415Z,8.90
2022-08-27T22:13:51.221Z,7.20
2022-08-27T22:16:17.837Z,7.10
2022-08-27T22:18:44.237Z,7.43
2022-08-27T22:21:10.893Z,8.93
2022-08-27T22:23:37.217Z,7.60
2022-08-27T22:26:04.285Z,4.63
2022-08-27T22:28:30.738Z,4.93
2022-08-27T22:30:57.308Z,6.97
2022-08-27T22:33:23.850Z,4.37
2022-08-27T22:35:50.245Z,8.93
2022-08-27T22:38:16.643Z,8.57
2022-08-27T22:40:43.203Z,8.13
2022-08-27T22:43:10.945Z,7.77
2022-08-27T22:45:37.483Z,8.73
2022-08-27T22:48:03.981Z,9.57
2022-08-27T22:50:30.367Z,5.47
2022-08-27T22:52:56.793Z,6.13
2022-08-27T22:55:23.666Z,6.60
2022-08-27T22:57:52.902Z,5.17
2022-08-27T23:00:31.640Z,5.57
2022-08-27T23:02:59.130Z,6.40
2022-08-27T23:05:26.133Z,6.60
2022-08-27T23:07:53.307Z,5.37
2022-08-27T23:10:24.007Z,6.67
2022-08-27T23:12:53.435Z,5.50
2022-08-27T23:15:22.875Z,6.93
2022-08-27T23:17:49.371Z,7.10
2022-08-27T23:20:16.797Z,9.00
2022-08-27T23:22:43.677Z,6.23
2022-08-27T23:25:43.529Z,6.70
2022-08-27T23:28:14.476Z,6.80
2022-08-27T23:33:09.704Z,7.10
2022-08-27T23:35:36.150Z,8.20
2022-08-27T23:38:02.660Z,9.40
2022-08-27T23:40:29.106Z,4.80
2022-08-27T23:42:55.855Z,9.37
2022-08-27T23:45:25.128Z,7.17
2022-08-27T23:47:51.572Z,6.57
2022-08-27T23:50:18.228Z,6.20
2022-08-27T23:52:44.718Z,10.20
2022-08-27T23:55:12.106Z,8.60
2022-08-27T23:57:39.661Z,6.07
